sensor_id;sensor_type;location;lat;lon;timestamp;temperature;humidity
41939;DHT22;23057;48.554;14.454;2022-12-29T00:01:59;0.90;99.90
41939;DHT22;23057;48.554;14.454;2022-12-29T00:04:30;1.00;99.90
41939;DHT22;23057;48.554;14.454;2022-12-29T00:07:01;1.10;99.90
41939;DHT22;23057;48.554;14.454;2022-12-29T00:09:34;1.10;99.90
41939;DHT22;23057;48.554;14.454;2022-12-29T00:12:06;1.10;99.90
41939;DHT22;23057;48.554;14.454;2022-12-29T00:14:36;1.20;99.90
41939;DHT22;23057;48.554;14.454;2022-12-29T00:17:26;1.20;99.90
41939;DHT22;23057;48.554;14.454;2022-12-29T00:19:56;1.10;99.90
41939;DHT22;23057;48.554;14.454;2022-12-29T00:22:45;1.10;99.90
41939;DHT22;23057;48.554;14.454;2022-12-29T00:25:35;1.00;99.90
41939;DHT22;23057;48.554;14.454;2022-12-29T00:28:38;1.00;99.90
41939;DHT22;23057;48.554;14.454;2022-12-29T00:31:45;1.00;99.90
41939;DHT22;23057;48.554;14.454;2022-12-29T00:34:34;0.90;99.90
41939;DHT22;23057;48.554;14.454;2022-12-29T00:37:23;0.90;99.90
41939;DHT22;23057;48.554;14.454;2022-12-29T00:40:14;0.80;99.90
41939;DHT22;23057;48.554;14.454;2022-12-29T00:43:03;0.80;99.90
41939;DHT22;23057;48.554;14.454;2022-12-29T00:45:52;0.80;99.90
41939;DHT22;23057;48.554;14.454;2022-12-29T00:48:23;0.90;99.90
41939;DHT22;23057;48.554;14.454;2022-12-29T00:51:12;0.90;99.90
41939;DHT22;23057;48.554;14.454;2022-12-29T00:53:43;0.80;99.90
41939;DHT22;23057;48.554;14.454;2022-12-29T00:56:14;0.80;99.90
41939;DHT22;23057;48.554;14.454;2022-12-29T00:58:44;0.80;99.90
41939;DHT22;23057;48.554;14.454;2022-12-29T01:01:15;0.70;99.90
41939;DHT22;23057;48.554;14.454;2022-12-29T01:03:46;0.70;99.90
41939;DHT22;23057;48.554;14.454;2022-12-29T01:06:17;0.70;99.90
41939;DHT22;23057;48.554;14.454;2022-12-29T01:08:47;0.70;99.90
41939;DHT22;23057;48.554;14.454;2022-12-29T01:11:38;0.70;99.90
41939;DHT22;23057;48.554;14.454;2022-12-29T01:14:09;0.70;99.90
41939;DHT22;23057;48.554;14.454;2022-12-29T01:16:40;0.70;99.90
41939;DHT22;23057;48.554;14.454;2022-12-29T01:19:11;0.70;99.90
41939;DHT22;23057;48.554;14.454;2022-12-29T01:21:46;0.70;99.90
41939;DHT22;23057;48.554;14.454;2022-12-29T01:24:18;0.70;99.90
41939;DHT22;23057;48.554;14.454;2022-12-29T01:26:50;0.70;99.90
41939;DHT22;23057;48.554;14.454;2022-12-29T01:29:21;0.70;99.90
41939;DHT22;23057;48.554;14.454;2022-12-29T01:31:52;0.70;99.90
41939;DHT22;23057;48.554;14.454;2022-12-29T01:34:23;0.70;99.90
41939;DHT22;23057;48.554;14.454;2022-12-29T01:36:54;0.70;99.90
41939;DHT22;23057;48.554;14.454;2022-12-29T01:39:24;0.70;99.90
41939;DHT22;23057;48.554;14.454;2022-12-29T01:41:55;0.70;99.90
41939;DHT22;23057;48.554;14.454;2022-12-29T01:47:48;0.90;99.90
41939;DHT22;23057;48.554;14.454;2022-12-29T01:50:31;0.80;99.90
41939;DHT22;23057;48.554;14.454;2022-12-29T01:53:07;0.70;99.90
41939;DHT22;23057;48.554;14.454;2022-12-29T01:55:48;0.50;99.90
41939;DHT22;23057;48.554;14.454;2022-12-29T01:58:26;0.20;99.90
41939;DHT22;23057;48.554;14.454;2022-12-29T02:01:04;0.20;99.90
41939;DHT22;23057;48.554;14.454;2022-12-29T02:03:36;0.30;99.90
41939;DHT22;23057;48.554;14.454;2022-12-29T02:06:11;0.30;99.90
41939;DHT22;23057;48.554;14.454;2022-12-29T02:08:50;0.30;99.90
41939;DHT22;23057;48.554;14.454;2022-12-29T02:11:25;0.40;99.90
41939;DHT22;23057;48.554;14.454;2022-12-29T02:13:58;0.40;99.90
41939;DHT22;23057;48.554;14.454;2022-12-29T02:27:40;0.50;99.90
41939;DHT22;23057;48.554;14.454;2022-12-29T02:33:37;0.40;99.90
41939;DHT22;23057;48.554;14.454;2022-12-29T02:42:21;0.40;99.90
41939;DHT22;23057;48.554;14.454;2022-12-29T02:47:56;0.50;99.90
41939;DHT22;23057;48.554;14.454;2022-12-29T02:51:19;0.50;99.90
41939;DHT22;23057;48.554;14.454;2022-12-29T02:53:58;0.40;99.90
41939;DHT22;23057;48.554;14.454;2022-12-29T02:56:48;0.30;99.90
41939;DHT22;23057;48.554;14.454;2022-12-29T02:59:19;0.30;99.90
41939;DHT22;23057;48.554;14.454;2022-12-29T03:05:11;0.30;99.90
41939;DHT22;23057;48.554;14.454;2022-12-29T03:08:19;0.50;99.90
41939;DHT22;23057;48.554;14.454;2022-12-29T03:11:05;0.70;99.90
41939;DHT22;23057;48.554;14.454;2022-12-29T03:17:26;0.80;99.90
41939;DHT22;23057;48.554;14.454;2022-12-29T03:20:35;0.60;99.90
41939;DHT22;23057;48.554;14.454;2022-12-29T03:23:19;0.50;99.90
41939;DHT22;23057;48.554;14.454;2022-12-29T03:25:53;0.50;99.90
41939;DHT22;23057;48.554;14.454;2022-12-29T03:28:32;0.60;99.90
41939;DHT22;23057;48.554;14.454;2022-12-29T03:31:15;0.50;99.90
41939;DHT22;23057;48.554;14.454;2022-12-29T03:33:48;0.20;99.90
41939;DHT22;23057;48.554;14.454;2022-12-29T03:36:30;0.10;99.90
41939;DHT22;23057;48.554;14.454;2022-12-29T03:39:13;0.00;99.90
41939;DHT22;23057;48.554;14.454;2022-12-29T03:41:44;0.00;99.90
41939;DHT22;23057;48.554;14.454;2022-12-29T03:44:16;0.00;99.90
41939;DHT22;23057;48.554;14.454;2022-12-29T03:46:47;0.10;99.90
41939;DHT22;23057;48.554;14.454;2022-12-29T03:49:18;0.20;99.90
41939;DHT22;23057;48.554;14.454;2022-12-29T03:51:48;0.30;99.90
41939;DHT22;23057;48.554;14.454;2022-12-29T03:54:19;0.30;99.90
41939;DHT22;23057;48.554;14.454;2022-12-29T03:56:50;0.50;99.90
41939;DHT22;23057;48.554;14.454;2022-12-29T03:59:21;0.50;99.90
41939;DHT22;23057;48.554;14.454;2022-12-29T04:01:52;0.50;99.90
41939;DHT22;23057;48.554;14.454;2022-12-29T04:04:23;0.40;99.90
41939;DHT22;23057;48.554;14.454;2022-12-29T04:06:53;0.30;99.90
41939;DHT22;23057;48.554;14.454;2022-12-29T04:09:24;0.20;99.90
41939;DHT22;23057;48.554;14.454;2022-12-29T04:11:55;0.10;99.90
41939;DHT22;23057;48.554;14.454;2022-12-29T04:14:25;0.20;99.90
41939;DHT22;23057;48.554;14.454;2022-12-29T04:16:56;0.20;99.90
41939;DHT22;23057;48.554;14.454;2022-12-29T04:19:27;0.40;99.90
41939;DHT22;23057;48.554;14.454;2022-12-29T04:21:58;0.50;99.90
41939;DHT22;23057;48.554;14.454;2022-12-29T04:24:28;0.60;99.90
41939;DHT22;23057;48.554;14.454;2022-12-29T04:26:59;0.60;99.90
41939;DHT22;23057;48.554;14.454;2022-12-29T04:29:30;0.70;99.90
41939;DHT22;23057;48.554;14.454;2022-12-29T04:32:01;0.60;99.90
41939;DHT22;23057;48.554;14.454;2022-12-29T04:34:31;0.60;99.90
41939;DHT22;23057;48.554;14.454;2022-12-29T04:37:02;0.60;99.90
41939;DHT22;23057;48.554;14.454;2022-12-29T04:39:33;0.60;99.90
41939;DHT22;23057;48.554;14.454;2022-12-29T04:42:04;0.60;99.90
41939;DHT22;23057;48.554;14.454;2022-12-29T04:44:35;0.60;99.90
41939;DHT22;23057;48.554;14.454;2022-12-29T04:47:06;0.70;99.90
41939;DHT22;23057;48.554;14.454;2022-12-29T04:49:36;0.60;99.90
41939;DHT22;23057;48.554;14.454;2022-12-29T04:52:07;0.60;99.90
41939;DHT22;23057;48.554;14.454;2022-12-29T04:54:38;0.60;99.90
41939;DHT22;23057;48.554;14.454;2022-12-29T04:57:09;0.70;99.90
41939;DHT22;23057;48.554;14.454;2022-12-29T04:59:40;1.00;99.90
41939;DHT22;23057;48.554;14.454;2022-12-29T05:02:11;1.30;60.10
41939;DHT22;23057;48.554;14.454;2022-12-29T05:04:42;1.20;1.00
41939;DHT22;23057;48.554;14.454;2022-12-29T05:07:12;1.00;1.00
41939;DHT22;23057;48.554;14.454;2022-12-29T05:09:43;0.90;1.00
41939;DHT22;23057;48.554;14.454;2022-12-29T05:12:14;0.60;41.40
41939;DHT22;23057;48.554;14.454;2022-12-29T05:14:45;0.60;91.60
41939;DHT22;23057;48.554;14.454;2022-12-29T05:17:16;0.70;47.90
41939;DHT22;23057;48.554;14.454;2022-12-29T05:19:46;0.80;1.00
41939;DHT22;23057;48.554;14.454;2022-12-29T05:22:17;0.90;1.00
41939;DHT22;23057;48.554;14.454;2022-12-29T05:24:48;0.90;99.90
41939;DHT22;23057;48.554;14.454;2022-12-29T05:27:19;0.80;99.90
41939;DHT22;23057;48.554;14.454;2022-12-29T05:29:49;0.70;99.90
41939;DHT22;23057;48.554;14.454;2022-12-29T05:32:20;0.60;1.00
41939;DHT22;23057;48.554;14.454;2022-12-29T05:34:51;0.80;99.90
41939;DHT22;23057;48.554;14.454;2022-12-29T05:37:22;0.80;99.90
41939;DHT22;23057;48.554;14.454;2022-12-29T05:39:52;0.90;99.90
41939;DHT22;23057;48.554;14.454;2022-12-29T05:42:23;1.10;99.90
41939;DHT22;23057;48.554;14.454;2022-12-29T05:44:54;1.30;1.00
41939;DHT22;23057;48.554;14.454;2022-12-29T05:47:25;1.30;1.00
41939;DHT22;23057;48.554;14.454;2022-12-29T05:49:56;1.40;99.90
41939;DHT22;23057;48.554;14.454;2022-12-29T05:52:26;1.50;99.90
41939;DHT22;23057;48.554;14.454;2022-12-29T05:54:57;1.60;99.90
41939;DHT22;23057;48.554;14.454;2022-12-29T05:57:28;1.70;99.90
41939;DHT22;23057;48.554;14.454;2022-12-29T05:59:58;1.50;99.90
41939;DHT22;23057;48.554;14.454;2022-12-29T06:02:29;1.60;99.90
41939;DHT22;23057;48.554;14.454;2022-12-29T06:05:00;1.70;61.00
41939;DHT22;23057;48.554;14.454;2022-12-29T06:07:31;1.60;91.80
41939;DHT22;23057;48.554;14.454;2022-12-29T06:10:01;1.50;99.90
41939;DHT22;23057;48.554;14.454;2022-12-29T06:12:33;1.40;99.90
41939;DHT22;23057;48.554;14.454;2022-12-29T06:15:04;1.20;99.90
41939;DHT22;23057;48.554;14.454;2022-12-29T06:17:35;1.10;99.90
41939;DHT22;23057;48.554;14.454;2022-12-29T06:20:06;1.10;99.90
41939;DHT22;23057;48.554;14.454;2022-12-29T06:22:38;1.10;99.90
41939;DHT22;23057;48.554;14.454;2022-12-29T06:25:09;1.20;99.90
41939;DHT22;23057;48.554;14.454;2022-12-29T06:27:40;1.30;99.90
41939;DHT22;23057;48.554;14.454;2022-12-29T06:30:11;1.30;99.90
41939;DHT22;23057;48.554;14.454;2022-12-29T06:32:43;1.40;99.90
41939;DHT22;23057;48.554;14.454;2022-12-29T06:35:14;1.40;99.90
41939;DHT22;23057;48.554;14.454;2022-12-29T06:37:45;1.40;99.90
41939;DHT22;23057;48.554;14.454;2022-12-29T06:40:16;1.40;99.90
41939;DHT22;23057;48.554;14.454;2022-12-29T06:42:47;1.20;99.90
41939;DHT22;23057;48.554;14.454;2022-12-29T06:45:17;1.00;1.00
41939;DHT22;23057;48.554;14.454;2022-12-29T06:47:48;1.00;1.00
41939;DHT22;23057;48.554;14.454;2022-12-29T06:50:19;1.10;1.00
41939;DHT22;23057;48.554;14.454;2022-12-29T06:52:50;1.20;1.00
41939;DHT22;23057;48.554;14.454;2022-12-29T06:55:20;1.40;99.90
41939;DHT22;23057;48.554;14.454;2022-12-29T06:57:56;1.50;99.90
41939;DHT22;23057;48.554;14.454;2022-12-29T07:00:27;1.60;99.90
41939;DHT22;23057;48.554;14.454;2022-12-29T07:02:58;1.60;99.90
41939;DHT22;23057;48.554;14.454;2022-12-29T07:05:29;1.60;99.90
41939;DHT22;23057;48.554;14.454;2022-12-29T07:08:01;1.60;99.90
41939;DHT22;23057;48.554;14.454;2022-12-29T07:10:32;1.70;99.90
41939;DHT22;23057;48.554;14.454;2022-12-29T07:13:03;1.80;99.90
41939;DHT22;23057;48.554;14.454;2022-12-29T07:15:35;2.00;99.90
41939;DHT22;23057;48.554;14.454;2022-12-29T07:18:07;2.30;99.90
41939;DHT22;23057;48.554;14.454;2022-12-29T07:20:38;2.40;99.90
41939;DHT22;23057;48.554;14.454;2022-12-29T07:23:08;2.40;70.00
41939;DHT22;23057;48.554;14.454;2022-12-29T07:25:39;2.10;99.90
41939;DHT22;23057;48.554;14.454;2022-12-29T07:28:11;2.20;61.50
41939;DHT22;23057;48.554;14.454;2022-12-29T07:30:42;2.30;13.90
41939;DHT22;23057;48.554;14.454;2022-12-29T07:33:12;2.50;1.00
41939;DHT22;23057;48.554;14.454;2022-12-29T07:35:43;2.60;1.00
41939;DHT22;23057;48.554;14.454;2022-12-29T07:38:14;2.60;1.00
41939;DHT22;23057;48.554;14.454;2022-12-29T07:40:45;2.70;1.00
41939;DHT22;23057;48.554;14.454;2022-12-29T07:43:16;2.90;1.00
41939;DHT22;23057;48.554;14.454;2022-12-29T07:45:47;3.00;99.90
41939;DHT22;23057;48.554;14.454;2022-12-29T07:48:18;3.10;99.90
41939;DHT22;23057;48.554;14.454;2022-12-29T07:50:49;3.10;99.90
41939;DHT22;23057;48.554;14.454;2022-12-29T07:53:22;3.10;99.90
41939;DHT22;23057;48.554;14.454;2022-12-29T07:55:52;2.50;1.00
41939;DHT22;23057;48.554;14.454;2022-12-29T07:58:23;2.30;1.00
41939;DHT22;23057;48.554;14.454;2022-12-29T08:00:54;2.30;1.00
41939;DHT22;23057;48.554;14.454;2022-12-29T08:03:26;2.60;1.00
41939;DHT22;23057;48.554;14.454;2022-12-29T08:05:57;3.00;1.00
41939;DHT22;23057;48.554;14.454;2022-12-29T08:08:27;3.40;1.00
41939;DHT22;23057;48.554;14.454;2022-12-29T08:10:59;3.70;99.90
41939;DHT22;23057;48.554;14.454;2022-12-29T08:13:29;3.80;99.90
41939;DHT22;23057;48.554;14.454;2022-12-29T08:16:00;3.80;99.90
41939;DHT22;23057;48.554;14.454;2022-12-29T08:18:31;3.50;99.90
41939;DHT22;23057;48.554;14.454;2022-12-29T08:21:02;3.60;99.90
41939;DHT22;23057;48.554;14.454;2022-12-29T08:23:34;3.60;99.90
41939;DHT22;23057;48.554;14.454;2022-12-29T08:26:05;3.60;99.90
41939;DHT22;23057;48.554;14.454;2022-12-29T08:28:36;3.60;99.90
41939;DHT22;23057;48.554;14.454;2022-12-29T08:31:07;3.70;99.90
41939;DHT22;23057;48.554;14.454;2022-12-29T08:33:38;3.80;99.90
41939;DHT22;23057;48.554;14.454;2022-12-29T08:36:08;4.10;99.90
41939;DHT22;23057;48.554;14.454;2022-12-29T08:38:39;4.30;99.90
41939;DHT22;23057;48.554;14.454;2022-12-29T08:41:10;4.40;99.90
41939;DHT22;23057;48.554;14.454;2022-12-29T08:43:41;3.90;99.90
41939;DHT22;23057;48.554;14.454;2022-12-29T08:46:16;3.90;99.90
41939;DHT22;23057;48.554;14.454;2022-12-29T08:48:47;4.20;99.90
41939;DHT22;23057;48.554;14.454;2022-12-29T08:51:17;4.60;99.90
41939;DHT22;23057;48.554;14.454;2022-12-29T08:53:48;3.90;99.90
41939;DHT22;23057;48.554;14.454;2022-12-29T08:56:19;4.20;99.90
41939;DHT22;23057;48.554;14.454;2022-12-29T08:58:50;4.50;99.90
41939;DHT22;23057;48.554;14.454;2022-12-29T09:01:22;4.90;99.90
41939;DHT22;23057;48.554;14.454;2022-12-29T09:03:53;5.30;99.90
41939;DHT22;23057;48.554;14.454;2022-12-29T09:06:24;5.50;99.90
41939;DHT22;23057;48.554;14.454;2022-12-29T09:08:55;5.80;99.90
41939;DHT22;23057;48.554;14.454;2022-12-29T09:11:26;5.80;99.90
41939;DHT22;23057;48.554;14.454;2022-12-29T09:13:57;5.50;99.90
41939;DHT22;23057;48.554;14.454;2022-12-29T09:16:27;5.30;99.90
41939;DHT22;23057;48.554;14.454;2022-12-29T09:18:58;5.30;99.90
41939;DHT22;23057;48.554;14.454;2022-12-29T09:21:29;5.40;99.90
41939;DHT22;23057;48.554;14.454;2022-12-29T09:24:00;5.30;99.90
41939;DHT22;23057;48.554;14.454;2022-12-29T09:26:31;5.60;99.90
41939;DHT22;23057;48.554;14.454;2022-12-29T09:29:01;5.50;99.90
41939;DHT22;23057;48.554;14.454;2022-12-29T09:31:32;5.50;99.90
41939;DHT22;23057;48.554;14.454;2022-12-29T09:34:03;5.60;99.90
41939;DHT22;23057;48.554;14.454;2022-12-29T09:36:33;5.70;99.90
41939;DHT22;23057;48.554;14.454;2022-12-29T09:39:04;5.80;99.90
41939;DHT22;23057;48.554;14.454;2022-12-29T09:41:39;5.90;90.40
41939;DHT22;23057;48.554;14.454;2022-12-29T09:44:18;5.80;72.30
41939;DHT22;23057;48.554;14.454;2022-12-29T09:47:00;6.00;78.60
41939;DHT22;23057;48.554;14.454;2022-12-29T09:49:35;6.10;99.90
41939;DHT22;23057;48.554;14.454;2022-12-29T09:52:32;6.00;99.90
41939;DHT22;23057;48.554;14.454;2022-12-29T09:55:14;6.10;99.90
41939;DHT22;23057;48.554;14.454;2022-12-29T10:00:40;6.30;98.90
41939;DHT22;23057;48.554;14.454;2022-12-29T10:03:52;6.30;93.40
41939;DHT22;23057;48.554;14.454;2022-12-29T10:06:32;6.40;99.90
41939;DHT22;23057;48.554;14.454;2022-12-29T10:09:17;6.40;99.90
41939;DHT22;23057;48.554;14.454;2022-12-29T10:12:12;6.50;86.90
41939;DHT22;23057;48.554;14.454;2022-12-29T10:24:02;7.70;27.60
41939;DHT22;23057;48.554;14.454;2022-12-29T10:26:41;7.90;19.90
41939;DHT22;23057;48.554;14.454;2022-12-29T10:29:16;8.00;1.00
41939;DHT22;23057;48.554;14.454;2022-12-29T10:31:57;8.40;1.00
41939;DHT22;23057;48.554;14.454;2022-12-29T10:34:42;8.50;1.00
41939;DHT22;23057;48.554;14.454;2022-12-29T10:37:29;8.80;1.00
41939;DHT22;23057;48.554;14.454;2022-12-29T10:43:24;9.10;1.00
41939;DHT22;23057;48.554;14.454;2022-12-29T10:46:00;9.10;1.00
41939;DHT22;23057;48.554;14.454;2022-12-29T10:48:37;9.10;1.00
41939;DHT22;23057;48.554;14.454;2022-12-29T10:51:08;9.10;1.00
41939;DHT22;23057;48.554;14.454;2022-12-29T10:53:47;9.00;1.00
41939;DHT22;23057;48.554;14.454;2022-12-29T10:56:33;9.10;1.00
41939;DHT22;23057;48.554;14.454;2022-12-29T10:59:19;9.10;1.00
41939;DHT22;23057;48.554;14.454;2022-12-29T11:04:52;9.20;1.00
41939;DHT22;23057;48.554;14.454;2022-12-29T11:07:39;9.10;1.00
41939;DHT22;23057;48.554;14.454;2022-12-29T11:13:11;9.20;1.00
41939;DHT22;23057;48.554;14.454;2022-12-29T11:15:45;9.40;1.00
41939;DHT22;23057;48.554;14.454;2022-12-29T11:20:58;10.10;1.00
41939;DHT22;23057;48.554;14.454;2022-12-29T11:23:33;10.00;1.00
41939;DHT22;23057;48.554;14.454;2022-12-29T11:26:14;10.10;99.90
41939;DHT22;23057;48.554;14.454;2022-12-29T11:31:41;10.50;1.00
41939;DHT22;23057;48.554;14.454;2022-12-29T11:34:20;10.50;99.90
41939;DHT22;23057;48.554;14.454;2022-12-29T11:37:04;10.50;99.90
41939;DHT22;23057;48.554;14.454;2022-12-29T11:42:37;10.70;99.90
41939;DHT22;23057;48.554;14.454;2022-12-29T11:45:16;10.70;99.90
41939;DHT22;23057;48.554;14.454;2022-12-29T11:48:00;10.70;99.90
41939;DHT22;23057;48.554;14.454;2022-12-29T11:50:39;10.80;99.90
41939;DHT22;23057;48.554;14.454;2022-12-29T11:53:26;10.80;99.90
41939;DHT22;23057;48.554;14.454;2022-12-29T11:56:13;10.90;99.90
41939;DHT22;23057;48.554;14.454;2022-12-29T11:58:47;11.00;99.90
41939;DHT22;23057;48.554;14.454;2022-12-29T12:01:36;10.90;99.90
41939;DHT22;23057;48.554;14.454;2022-12-29T12:04:11;11.00;99.90
41939;DHT22;23057;48.554;14.454;2022-12-29T12:09:53;10.90;99.90
41939;DHT22;23057;48.554;14.454;2022-12-29T12:12:44;11.00;99.90
41939;DHT22;23057;48.554;14.454;2022-12-29T12:15:31;11.10;99.90
41939;DHT22;23057;48.554;14.454;2022-12-29T12:20:52;11.30;99.90
41939;DHT22;23057;48.554;14.454;2022-12-29T12:26:56;11.40;99.90
41939;DHT22;23057;48.554;14.454;2022-12-29T12:29:55;11.50;99.90
41939;DHT22;23057;48.554;14.454;2022-12-29T12:32:39;11.60;99.90
41939;DHT22;23057;48.554;14.454;2022-12-29T12:35:42;11.80;99.90
41939;DHT22;23057;48.554;14.454;2022-12-29T12:53:56;11.70;99.90
41939;DHT22;23057;48.554;14.454;2022-12-29T12:59:56;11.50;99.90
41939;DHT22;23057;48.554;14.454;2022-12-29T13:05:50;11.60;99.90
41939;DHT22;23057;48.554;14.454;2022-12-29T13:08:38;11.60;99.90
41939;DHT22;23057;48.554;14.454;2022-12-29T13:14:55;11.50;99.90
41939;DHT22;23057;48.554;14.454;2022-12-29T13:20:47;11.50;99.90
41939;DHT22;23057;48.554;14.454;2022-12-29T13:23:33;11.50;99.90
41939;DHT22;23057;48.554;14.454;2022-12-29T13:26:32;11.40;99.90
41939;DHT22;23057;48.554;14.454;2022-12-29T13:29:17;11.20;99.90
41939;DHT22;23057;48.554;14.454;2022-12-29T13:38:01;10.90;99.90
41939;DHT22;23057;48.554;14.454;2022-12-29T13:40:42;11.00;99.90
41939;DHT22;23057;48.554;14.454;2022-12-29T13:43:20;10.90;99.90
41939;DHT22;23057;48.554;14.454;2022-12-29T13:46:02;10.80;99.90
41939;DHT22;23057;48.554;14.454;2022-12-29T13:48:52;10.70;99.90
41939;DHT22;23057;48.554;14.454;2022-12-29T13:51:51;10.80;99.90
41939;DHT22;23057;48.554;14.454;2022-12-29T13:54:39;10.70;99.90
41939;DHT22;23057;48.554;14.454;2022-12-29T13:57:41;10.70;99.90
41939;DHT22;23057;48.554;14.454;2022-12-29T14:00:24;10.60;99.90
41939;DHT22;23057;48.554;14.454;2022-12-29T14:03:46;10.50;99.90
41939;DHT22;23057;48.554;14.454;2022-12-29T14:06:03;10.40;99.90
41939;DHT22;23057;48.554;14.454;2022-12-29T14:08:45;10.30;99.90
41939;DHT22;23057;48.554;14.454;2022-12-29T14:11:20;10.20;99.90
41939;DHT22;23057;48.554;14.454;2022-12-29T14:13:59;10.20;99.90
41939;DHT22;23057;48.554;14.454;2022-12-29T14:16:54;10.00;99.90
41939;DHT22;23057;48.554;14.454;2022-12-29T14:19:38;9.90;1.00
41939;DHT22;23057;48.554;14.454;2022-12-29T14:22:15;9.70;1.00
41939;DHT22;23057;48.554;14.454;2022-12-29T14:24:55;9.70;1.00
41939;DHT22;23057;48.554;14.454;2022-12-29T14:30:00;9.20;1.00
41939;DHT22;23057;48.554;14.454;2022-12-29T14:35:36;9.00;1.00
41939;DHT22;23057;48.554;14.454;2022-12-29T14:38:14;8.90;1.00
41939;DHT22;23057;48.554;14.454;2022-12-29T14:43:57;8.60;11.70
41939;DHT22;23057;48.554;14.454;2022-12-29T14:49:25;8.40;14.00
41939;DHT22;23057;48.554;14.454;2022-12-29T14:52:06;8.40;2.90
41939;DHT22;23057;48.554;14.454;2022-12-29T14:54:48;8.30;6.90
41939;DHT22;23057;48.554;14.454;2022-12-29T14:57:43;8.30;94.00
41939;DHT22;23057;48.554;14.454;2022-12-29T15:00:22;8.00;61.40
41939;DHT22;23057;48.554;14.454;2022-12-29T15:05:54;7.80;30.80
41939;DHT22;23057;48.554;14.454;2022-12-29T15:08:33;7.70;41.40
41939;DHT22;23057;48.554;14.454;2022-12-29T15:13:52;7.50;68.20
41939;DHT22;23057;48.554;14.454;2022-12-29T15:19:01;7.30;99.90
41939;DHT22;23057;48.554;14.454;2022-12-29T15:21:34;7.30;99.90
41939;DHT22;23057;48.554;14.454;2022-12-29T15:24:09;7.30;99.90
41939;DHT22;23057;48.554;14.454;2022-12-29T15:26:46;7.20;99.90
41939;DHT22;23057;48.554;14.454;2022-12-29T15:29:38;7.10;99.90
41939;DHT22;23057;48.554;14.454;2022-12-29T15:34:47;7.00;99.90
41939;DHT22;23057;48.554;14.454;2022-12-29T15:37:23;6.90;99.90
41939;DHT22;23057;48.554;14.454;2022-12-29T15:39:58;6.90;99.90
41939;DHT22;23057;48.554;14.454;2022-12-29T15:45:14;6.80;99.90
41939;DHT22;23057;48.554;14.454;2022-12-29T15:47:46;6.80;99.90
41939;DHT22;23057;48.554;14.454;2022-12-29T15:50:23;6.80;99.90
41939;DHT22;23057;48.554;14.454;2022-12-29T15:52:59;6.60;99.90
41939;DHT22;23057;48.554;14.454;2022-12-29T15:55:34;6.30;99.90
41939;DHT22;23057;48.554;14.454;2022-12-29T15:58:22;6.00;99.90
41939;DHT22;23057;48.554;14.454;2022-12-29T16:00:59;5.90;99.90
41939;DHT22;23057;48.554;14.454;2022-12-29T16:03:32;5.90;99.90
41939;DHT22;23057;48.554;14.454;2022-12-29T16:06:08;5.90;99.90
41939;DHT22;23057;48.554;14.454;2022-12-29T16:08:57;6.00;99.90
41939;DHT22;23057;48.554;14.454;2022-12-29T16:11:38;6.20;99.90
41939;DHT22;23057;48.554;14.454;2022-12-29T16:14:17;6.20;99.90
41939;DHT22;23057;48.554;14.454;2022-12-29T16:16:53;6.10;99.90
41939;DHT22;23057;48.554;14.454;2022-12-29T16:19:34;6.00;99.90
41939;DHT22;23057;48.554;14.454;2022-12-29T16:22:11;5.90;99.90
41939;DHT22;23057;48.554;14.454;2022-12-29T16:25:13;5.80;99.90
41939;DHT22;23057;48.554;14.454;2022-12-29T16:28:14;5.60;99.90
41939;DHT22;23057;48.554;14.454;2022-12-29T16:31:18;5.40;99.90
41939;DHT22;23057;48.554;14.454;2022-12-29T16:33:54;5.40;99.90
41939;DHT22;23057;48.554;14.454;2022-12-29T16:36:27;5.40;99.90
41939;DHT22;23057;48.554;14.454;2022-12-29T16:50:36;5.30;99.90
41939;DHT22;23057;48.554;14.454;2022-12-29T16:56:15;5.30;99.90
41939;DHT22;23057;48.554;14.454;2022-12-29T16:59:00;5.20;1.00
41939;DHT22;23057;48.554;14.454;2022-12-29T17:01:56;5.20;1.00
41939;DHT22;23057;48.554;14.454;2022-12-29T17:04:29;5.20;1.00
41939;DHT22;23057;48.554;14.454;2022-12-29T17:07:00;5.20;1.00
41939;DHT22;23057;48.554;14.454;2022-12-29T17:09:31;5.10;1.00
41939;DHT22;23057;48.554;14.454;2022-12-29T17:12:01;5.10;1.00
41939;DHT22;23057;48.554;14.454;2022-12-29T17:17:29;5.10;1.00
41939;DHT22;23057;48.554;14.454;2022-12-29T17:20:15;5.10;1.00
41939;DHT22;23057;48.554;14.454;2022-12-29T17:22:50;5.10;1.00
41939;DHT22;23057;48.554;14.454;2022-12-29T17:25:26;5.10;1.00
41939;DHT22;23057;48.554;14.454;2022-12-29T17:28:12;5.20;1.00
41939;DHT22;23057;48.554;14.454;2022-12-29T17:30:52;5.30;99.90
41939;DHT22;23057;48.554;14.454;2022-12-29T17:33:35;5.30;99.90
41939;DHT22;23057;48.554;14.454;2022-12-29T17:36:11;5.30;99.90
41939;DHT22;23057;48.554;14.454;2022-12-29T17:38:42;5.30;99.90
41939;DHT22;23057;48.554;14.454;2022-12-29T17:41:13;5.30;99.90
41939;DHT22;23057;48.554;14.454;2022-12-29T17:43:44;5.30;99.90
41939;DHT22;23057;48.554;14.454;2022-12-29T17:46:15;5.30;99.90
41939;DHT22;23057;48.554;14.454;2022-12-29T17:48:46;5.20;99.90
41939;DHT22;23057;48.554;14.454;2022-12-29T17:51:16;5.20;99.90
41939;DHT22;23057;48.554;14.454;2022-12-29T17:53:49;5.10;99.90
41939;DHT22;23057;48.554;14.454;2022-12-29T17:56:21;5.00;99.90
41939;DHT22;23057;48.554;14.454;2022-12-29T17:58:52;4.90;99.90
41939;DHT22;23057;48.554;14.454;2022-12-29T18:01:22;4.70;99.90
41939;DHT22;23057;48.554;14.454;2022-12-29T18:03:55;4.60;99.90
41939;DHT22;23057;48.554;14.454;2022-12-29T18:06:26;4.40;99.90
41939;DHT22;23057;48.554;14.454;2022-12-29T18:08:57;4.30;99.90
41939;DHT22;23057;48.554;14.454;2022-12-29T18:11:28;4.30;99.90
41939;DHT22;23057;48.554;14.454;2022-12-29T18:13:58;4.40;1.00
41939;DHT22;23057;48.554;14.454;2022-12-29T18:16:29;4.50;99.90
41939;DHT22;23057;48.554;14.454;2022-12-29T18:19:00;4.70;99.90
41939;DHT22;23057;48.554;14.454;2022-12-29T18:21:31;4.70;99.90
41939;DHT22;23057;48.554;14.454;2022-12-29T18:24:01;4.80;99.90
41939;DHT22;23057;48.554;14.454;2022-12-29T18:26:32;4.80;99.90
41939;DHT22;23057;48.554;14.454;2022-12-29T18:29:04;4.80;99.90
41939;DHT22;23057;48.554;14.454;2022-12-29T18:31:35;4.70;99.90
41939;DHT22;23057;48.554;14.454;2022-12-29T18:34:11;4.70;99.90
41939;DHT22;23057;48.554;14.454;2022-12-29T18:36:44;4.80;99.90
41939;DHT22;23057;48.554;14.454;2022-12-29T18:39:15;4.80;99.90
41939;DHT22;23057;48.554;14.454;2022-12-29T18:41:46;4.70;99.90
41939;DHT22;23057;48.554;14.454;2022-12-29T18:44:16;4.60;99.90
41939;DHT22;23057;48.554;14.454;2022-12-29T18:46:47;4.50;99.90
41939;DHT22;23057;48.554;14.454;2022-12-29T18:49:18;4.50;1.00
41939;DHT22;23057;48.554;14.454;2022-12-29T18:51:48;4.30;1.00
41939;DHT22;23057;48.554;14.454;2022-12-29T18:54:27;4.30;1.00
41939;DHT22;23057;48.554;14.454;2022-12-29T18:57:01;4.20;1.00
41939;DHT22;23057;48.554;14.454;2022-12-29T18:59:32;4.10;1.00